This is the latest recevied weather packets stored in our database for station/object EA1GCN-10. If no packets are shown the sender has not sent any weather packets the latest 10 day(s).
| Time | Temp. | Humidity | Pressure | Rain* | Wind** | Luminosity | Snow |
|---|---|---|---|---|---|---|---|
| 1777561879 | 23.33° C | 51% | 1017 hPa | - | - | - | - |
| 1777560079 | 24.44° C | 47% | 1017 hPa | - | - | - | - |
| 1777558279 | 27.22° C | 42% | 1017 hPa | - | - | - | - |
| 1777556479 | 27.22° C | 42% | 1017 hPa | - | - | - | - |
| 1777554679 | 26.67° C | 44% | 1017 hPa | - | - | - | - |
| 1777552879 | 25.56° C | 47% | 1016 hPa | - | - | - | - |
| 1777551079 | 24.44° C | 50% | 1016 hPa | - | - | - | - |
| 1777549278 | 23.89° C | 51% | 1016 hPa | - | - | - | - |
| 1777547478 | 23.33° C | 52% | 1016 hPa | - | - | - | - |
| 1777545678 | 22.78° C | 54% | 1016 hPa | - | - | - | - |
| 1777543878 | 21.67° C | 57% | 1016 hPa | - | - | - | - |
| 1777542078 | 21.11° C | 59% | 1016 hPa | - | - | - | - |
| 1777540278 | 20.56° C | 59% | 1015 hPa | - | - | - | - |
| 1777538478 | 20° C | 60% | 1015 hPa | - | - | - | - |
| 1777536678 | 20° C | 61% | 1015 hPa | - | - | - | - |
| 1777534878 | 18.89° C | 64% | 1014 hPa | - | - | - | - |
| 1777533077 | 18.89° C | 66% | 1014 hPa | - | - | - | - |
| 1777531277 | 19.44° C | 64% | 1014 hPa | - | - | - | - |
| 1777529477 | 19.44° C | 65% | 1014 hPa | - | - | - | - |
| 1777527677 | 19.44° C | 65% | 1013 hPa | - | - | - | - |
| 1777525877 | 19.44° C | 65% | 1013 hPa | - | - | - | - |
| 1777524077 | 19.44° C | 65% | 1013 hPa | - | - | - | - |
| 1777522277 | 20° C | 65% | 1013 hPa | - | - | - | - |
| 1777520477 | 20° C | 65% | 1012 hPa | - | - | - | - |
| 1777518676 | 20° C | 65% | 1012 hPa | - | - | - | - |
* Rain since midnight (hover to see other rain measurements)
** Current wind speed in m/s (hover to see current wind gust speed)